Terminal Aerodrome Forecast
Issued by NWS Wilmington, OH

Current Version | Previous Version | Graphics & Text | Print | Product List | Glossary On
Versions: 1 2 3 4 5 6 7 8 9 10 11 12 13 14 15 16 17 18
000
FTUS41 KILN 110540
TAFILN
TAF
KILN 110540Z 1106/1206 26007KT P6SM FEW250
     FM110800 26005KT P6SM BKN025
     FM111100 22004KT P6SM SCT025 BKN250
     FM111500 20010KT P6SM BKN080 OVC150=

USA.gov is the U.S. government's official web portal to all federal, state and local government web resources and services.